ワルシャワ の空港の天気 - METARとTAF

ワルシャワ・フレデリック・ショパン空港 ( EPWA / WAW ) - ポーランド ワルシャワ
飛行場実況気象(Metar)
観測時間04/25 16:30 CEST (04/25 14:30 UTC)
風向・風速西 5m/s
視程10km以上
天気現象
なし
気温22℃
湿度38%
気圧1003hPa
METAREPWA 251430Z 26009KT 220V290 CAVOK 22/07 Q1003 NOSIG
過去の天気等 Google飛行場航空写真 Wunderground天気予報

過去48時間のMETAR

飛行場予報(TAF)
発表時間: 4/25 16:30 CEST (4/25 14:30 UTC)
予報対象時間: 25日17時 CEST ~ 26日17時 CEST
風向・風速西 7m/s
視程10km以上
なし
25日17時 CEST ~ 26日2時 CEST に一時的に
風向・風速西 8m/s 瞬間風速 17m/s
25日17時 CEST ~ 25日21時 CEST に 確率 40% で一時的に
天気現象しゅう雨
全天の8割程度の積乱雲 雲底高度 910m
25日17時 CEST ~ 25日20時 CEST に 確率 30% で一時的に
視程4,500m
天気現象雷雨
26日13時 CEST ~ 26日17時 CEST に 確率 30% で一時的に
天気現象しゅう雨
全天の8割程度の積乱雲 雲底高度 910m
TAF EPWA 251430Z 2515/2615 27013KT CAVOK
TEMPO 2515/2524 27016G33KT
PROB40 TEMPO 2515/2519 SHRA BKN030CB
PROB30 TEMPO 2515/2518 4500 TSRA
PROB30 TEMPO 2611/2615 SHRA BKN030CB